sensor_id;sensor_type;location;lat;lon;timestamp;pressure;altitude;pressure_sealevel;temperature;humidity
54876;BME280;40764;48.472;8.166;2022-10-26T00:04:34;98183.91;;;12.37;100.00
54876;BME280;40764;48.472;8.166;2022-10-26T00:10:37;98189.91;;;12.53;100.00
54876;BME280;40764;48.472;8.166;2022-10-26T00:16:37;98173.75;;;12.52;100.00
54876;BME280;40764;48.472;8.166;2022-10-26T00:22:38;98156.88;;;12.58;100.00
54876;BME280;40764;48.472;8.166;2022-10-26T00:28:38;98156.75;;;12.63;100.00
54876;BME280;40764;48.472;8.166;2022-10-26T00:34:39;98144.03;;;12.67;100.00
54876;BME280;40764;48.472;8.166;2022-10-26T00:40:39;98132.38;;;12.62;100.00
54876;BME280;40764;48.472;8.166;2022-10-26T00:46:40;98134.06;;;12.71;100.00
54876;BME280;40764;48.472;8.166;2022-10-26T00:52:40;98123.81;;;12.77;100.00
54876;BME280;40764;48.472;8.166;2022-10-26T00:58:41;98127.72;;;12.85;100.00
54876;BME280;40764;48.472;8.166;2022-10-26T01:04:44;98142.13;;;12.90;100.00
54876;BME280;40764;48.472;8.166;2022-10-26T01:10:45;98125.63;;;12.82;100.00
54876;BME280;40764;48.472;8.166;2022-10-26T01:16:52;98124.84;;;12.67;100.00
54876;BME280;40764;48.472;8.166;2022-10-26T01:23:16;98095.28;;;12.64;100.00
54876;BME280;40764;48.472;8.166;2022-10-26T01:29:43;98127.59;;;12.90;100.00
54876;BME280;40764;48.472;8.166;2022-10-26T01:35:51;98149.72;;;12.93;100.00
54876;BME280;40764;48.472;8.166;2022-10-26T01:41:57;98149.66;;;12.62;100.00
54876;BME280;40764;48.472;8.166;2022-10-26T01:48:01;98166.69;;;12.73;100.00
54876;BME280;40764;48.472;8.166;2022-10-26T01:54:02;98152.44;;;12.71;100.00
54876;BME280;40764;48.472;8.166;2022-10-26T02:00:09;98161.63;;;12.89;100.00
54876;BME280;40764;48.472;8.166;2022-10-26T02:06:19;98168.75;;;13.12;100.00
54876;BME280;40764;48.472;8.166;2022-10-26T02:18:46;98187.81;;;12.95;100.00
54876;BME280;40764;48.472;8.166;2022-10-26T02:24:52;98196.31;;;12.85;100.00
54876;BME280;40764;48.472;8.166;2022-10-26T02:30:55;98195.94;;;12.78;100.00
54876;BME280;40764;48.472;8.166;2022-10-26T02:36:58;98204.53;;;12.85;100.00
54876;BME280;40764;48.472;8.166;2022-10-26T02:43:04;98234.94;;;13.11;100.00
54876;BME280;40764;48.472;8.166;2022-10-26T02:49:06;98238.69;;;13.15;100.00
54876;BME280;40764;48.472;8.166;2022-10-26T02:55:11;98231.72;;;12.95;100.00
54876;BME280;40764;48.472;8.166;2022-10-26T03:01:14;98229.28;;;12.93;100.00
54876;BME280;40764;48.472;8.166;2022-10-26T03:07:22;98230.09;;;12.94;100.00
54876;BME280;40764;48.472;8.166;2022-10-26T03:13:22;98180.91;;;12.97;100.00
54876;BME280;40764;48.472;8.166;2022-10-26T03:19:23;98216.13;;;13.18;100.00
54876;BME280;40764;48.472;8.166;2022-10-26T03:25:24;98227.59;;;13.42;100.00
54876;BME280;40764;48.472;8.166;2022-10-26T03:31:24;98219.78;;;13.13;100.00
54876;BME280;40764;48.472;8.166;2022-10-26T03:37:25;98223.03;;;13.15;100.00
54876;BME280;40764;48.472;8.166;2022-10-26T03:43:26;98221.25;;;13.33;100.00
54876;BME280;40764;48.472;8.166;2022-10-26T03:49:26;98210.00;;;13.21;100.00
54876;BME280;40764;48.472;8.166;2022-10-26T03:55:26;98193.53;;;13.21;100.00
54876;BME280;40764;48.472;8.166;2022-10-26T04:01:27;98211.31;;;13.23;100.00
54876;BME280;40764;48.472;8.166;2022-10-26T04:07:27;98202.91;;;13.20;100.00
54876;BME280;40764;48.472;8.166;2022-10-26T04:13:27;98202.19;;;13.14;100.00
54876;BME280;40764;48.472;8.166;2022-10-26T04:19:28;98196.91;;;13.18;100.00
54876;BME280;40764;48.472;8.166;2022-10-26T04:25:30;98187.16;;;13.12;100.00
54876;BME280;40764;48.472;8.166;2022-10-26T04:31:31;98182.56;;;13.21;100.00
54876;BME280;40764;48.472;8.166;2022-10-26T04:37:32;98195.53;;;13.29;100.00
54876;BME280;40764;48.472;8.166;2022-10-26T04:43:32;98207.25;;;13.21;100.00
54876;BME280;40764;48.472;8.166;2022-10-26T04:49:33;98212.03;;;13.15;100.00
54876;BME280;40764;48.472;8.166;2022-10-26T04:55:33;98201.59;;;13.17;100.00
54876;BME280;40764;48.472;8.166;2022-10-26T05:01:34;98209.38;;;13.24;100.00
54876;BME280;40764;48.472;8.166;2022-10-26T05:07:34;98217.06;;;13.36;100.00
54876;BME280;40764;48.472;8.166;2022-10-26T05:13:35;98223.56;;;13.40;100.00
54876;BME280;40764;48.472;8.166;2022-10-26T05:19:35;98217.63;;;13.24;100.00
54876;BME280;40764;48.472;8.166;2022-10-26T05:25:36;98231.41;;;13.32;100.00
54876;BME280;40764;48.472;8.166;2022-10-26T05:31:37;98254.44;;;13.45;100.00
54876;BME280;40764;48.472;8.166;2022-10-26T05:37:37;98240.84;;;13.40;100.00
54876;BME280;40764;48.472;8.166;2022-10-26T05:43:38;98238.44;;;13.47;100.00
54876;BME280;40764;48.472;8.166;2022-10-26T05:49:38;98241.94;;;13.61;100.00
54876;BME280;40764;48.472;8.166;2022-10-26T05:55:39;98242.81;;;13.71;100.00
54876;BME280;40764;48.472;8.166;2022-10-26T06:02:18;98249.16;;;13.80;100.00
54876;BME280;40764;48.472;8.166;2022-10-26T06:08:17;98262.94;;;13.88;100.00
54876;BME280;40764;48.472;8.166;2022-10-26T06:14:17;98261.44;;;13.82;100.00
54876;BME280;40764;48.472;8.166;2022-10-26T06:26:51;98291.03;;;13.85;100.00
54876;BME280;40764;48.472;8.166;2022-10-26T06:32:53;98297.78;;;13.79;100.00
54876;BME280;40764;48.472;8.166;2022-10-26T06:39:09;98291.03;;;13.85;100.00
54876;BME280;40764;48.472;8.166;2022-10-26T06:45:12;98305.78;;;13.89;100.00
54876;BME280;40764;48.472;8.166;2022-10-26T06:51:15;98326.81;;;13.94;100.00
54876;BME280;40764;48.472;8.166;2022-10-26T06:57:21;98324.50;;;13.87;100.00
54876;BME280;40764;48.472;8.166;2022-10-26T07:03:21;98333.13;;;13.94;100.00
54876;BME280;40764;48.472;8.166;2022-10-26T07:09:22;98338.44;;;13.91;100.00
54876;BME280;40764;48.472;8.166;2022-10-26T07:15:22;98337.72;;;14.08;100.00
54876;BME280;40764;48.472;8.166;2022-10-26T07:21:23;98346.63;;;14.13;100.00
54876;BME280;40764;48.472;8.166;2022-10-26T07:27:23;98348.66;;;14.21;100.00
54876;BME280;40764;48.472;8.166;2022-10-26T07:33:23;98355.81;;;14.31;100.00
54876;BME280;40764;48.472;8.166;2022-10-26T07:39:24;98376.41;;;14.42;100.00
54876;BME280;40764;48.472;8.166;2022-10-26T07:45:27;98391.72;;;14.57;100.00
54876;BME280;40764;48.472;8.166;2022-10-26T07:51:28;98399.47;;;14.55;100.00
54876;BME280;40764;48.472;8.166;2022-10-26T07:57:28;98412.88;;;14.48;100.00
54876;BME280;40764;48.472;8.166;2022-10-26T08:03:29;98432.69;;;14.67;100.00
54876;BME280;40764;48.472;8.166;2022-10-26T08:09:29;98434.63;;;14.67;100.00
54876;BME280;40764;48.472;8.166;2022-10-26T08:15:29;98440.00;;;14.72;100.00
54876;BME280;40764;48.472;8.166;2022-10-26T08:21:29;98435.38;;;14.90;100.00
54876;BME280;40764;48.472;8.166;2022-10-26T08:27:30;98439.94;;;14.94;100.00
54876;BME280;40764;48.472;8.166;2022-10-26T08:33:30;98449.41;;;15.10;100.00
54876;BME280;40764;48.472;8.166;2022-10-26T08:39:30;98455.31;;;15.35;100.00
54876;BME280;40764;48.472;8.166;2022-10-26T08:45:49;98453.75;;;15.60;100.00
54876;BME280;40764;48.472;8.166;2022-10-26T08:51:54;98452.00;;;15.81;100.00
54876;BME280;40764;48.472;8.166;2022-10-26T08:57:58;98462.72;;;15.91;100.00
54876;BME280;40764;48.472;8.166;2022-10-26T09:04:02;98479.09;;;16.05;100.00
54876;BME280;40764;48.472;8.166;2022-10-26T09:10:38;98477.31;;;16.09;100.00
54876;BME280;40764;48.472;8.166;2022-10-26T09:16:52;98487.53;;;16.08;100.00
54876;BME280;40764;48.472;8.166;2022-10-26T09:29:12;98507.63;;;16.18;100.00
54876;BME280;40764;48.472;8.166;2022-10-26T09:35:14;98517.03;;;16.42;100.00
54876;BME280;40764;48.472;8.166;2022-10-26T09:41:39;98521.09;;;16.36;100.00
54876;BME280;40764;48.472;8.166;2022-10-26T09:47:46;98524.00;;;16.75;100.00
54876;BME280;40764;48.472;8.166;2022-10-26T09:53:50;98518.31;;;17.26;100.00
54876;BME280;40764;48.472;8.166;2022-10-26T09:59:51;98524.44;;;17.41;100.00
54876;BME280;40764;48.472;8.166;2022-10-26T10:05:52;98542.88;;;17.57;100.00
54876;BME280;40764;48.472;8.166;2022-10-26T10:11:58;98545.06;;;17.81;100.00
54876;BME280;40764;48.472;8.166;2022-10-26T10:18:00;98554.56;;;17.72;99.48
54876;BME280;40764;48.472;8.166;2022-10-26T10:24:00;98558.47;;;18.00;99.15
54876;BME280;40764;48.472;8.166;2022-10-26T10:30:22;98558.19;;;18.55;93.80
54876;BME280;40764;48.472;8.166;2022-10-26T10:36:23;98566.28;;;18.61;93.19
54876;BME280;40764;48.472;8.166;2022-10-26T10:42:26;98569.16;;;18.52;88.90
54876;BME280;40764;48.472;8.166;2022-10-26T10:48:29;98566.97;;;18.57;92.23
54876;BME280;40764;48.472;8.166;2022-10-26T10:54:31;98573.13;;;18.63;90.96
54876;BME280;40764;48.472;8.166;2022-10-26T11:00:36;98573.75;;;18.69;90.33
54876;BME280;40764;48.472;8.166;2022-10-26T11:06:38;98570.63;;;19.03;89.59
54876;BME280;40764;48.472;8.166;2022-10-26T11:12:48;98566.13;;;18.99;85.90
54876;BME280;40764;48.472;8.166;2022-10-26T11:19:05;98573.28;;;19.00;82.92
54876;BME280;40764;48.472;8.166;2022-10-26T11:25:14;98571.44;;;19.04;81.82
54876;BME280;40764;48.472;8.166;2022-10-26T11:31:24;98559.56;;;19.61;78.47
54876;BME280;40764;48.472;8.166;2022-10-26T11:38:08;98559.53;;;20.09;76.74
54876;BME280;40764;48.472;8.166;2022-10-26T11:50:26;98565.78;;;20.06;73.25
54876;BME280;40764;48.472;8.166;2022-10-26T11:56:35;98561.88;;;19.83;72.59
54876;BME280;40764;48.472;8.166;2022-10-26T12:02:39;98560.16;;;19.66;73.34
54876;BME280;40764;48.472;8.166;2022-10-26T12:08:42;98564.06;;;19.77;73.62
54876;BME280;40764;48.472;8.166;2022-10-26T12:20:58;98562.91;;;20.03;71.73
54876;BME280;40764;48.472;8.166;2022-10-26T12:27:03;98567.97;;;20.13;70.76
54876;BME280;40764;48.472;8.166;2022-10-26T12:33:27;98574.31;;;20.26;70.60
54876;BME280;40764;48.472;8.166;2022-10-26T12:39:35;98568.75;;;20.26;68.98
54876;BME280;40764;48.472;8.166;2022-10-26T12:45:36;98560.75;;;20.36;68.36
54876;BME280;40764;48.472;8.166;2022-10-26T13:04:00;98574.09;;;20.71;64.92
54876;BME280;40764;48.472;8.166;2022-10-26T13:10:16;98577.06;;;20.78;64.12
54876;BME280;40764;48.472;8.166;2022-10-26T13:16:18;98578.38;;;20.68;65.53
54876;BME280;40764;48.472;8.166;2022-10-26T13:22:19;98583.41;;;20.79;66.02
54876;BME280;40764;48.472;8.166;2022-10-26T13:34:39;98590.00;;;20.86;64.25
54876;BME280;40764;48.472;8.166;2022-10-26T13:40:42;98588.44;;;20.73;64.86
54876;BME280;40764;48.472;8.166;2022-10-26T13:46:43;98593.72;;;20.78;64.69
54876;BME280;40764;48.472;8.166;2022-10-26T13:52:46;98600.16;;;20.94;64.42
54876;BME280;40764;48.472;8.166;2022-10-26T13:58:53;98603.09;;;21.14;64.97
54876;BME280;40764;48.472;8.166;2022-10-26T14:05:01;98605.09;;;21.29;68.79
54876;BME280;40764;48.472;8.166;2022-10-26T14:11:02;98600.34;;;21.01;71.06
54876;BME280;40764;48.472;8.166;2022-10-26T14:17:03;98609.91;;;20.88;69.36
54876;BME280;40764;48.472;8.166;2022-10-26T14:23:04;98617.88;;;20.50;71.14
54876;BME280;40764;48.472;8.166;2022-10-26T14:29:15;98612.00;;;20.27;73.21
54876;BME280;40764;48.472;8.166;2022-10-26T14:35:21;98617.09;;;20.25;72.96
54876;BME280;40764;48.472;8.166;2022-10-26T14:41:22;98620.69;;;19.76;76.29
54876;BME280;40764;48.472;8.166;2022-10-26T14:47:25;98629.78;;;19.65;78.37
54876;BME280;40764;48.472;8.166;2022-10-26T14:53:36;98634.66;;;19.35;81.42
54876;BME280;40764;48.472;8.166;2022-10-26T14:59:36;98639.69;;;19.41;81.22
54876;BME280;40764;48.472;8.166;2022-10-26T15:05:37;98634.66;;;19.23;82.51
54876;BME280;40764;48.472;8.166;2022-10-26T15:11:40;98647.00;;;19.25;83.13
54876;BME280;40764;48.472;8.166;2022-10-26T15:17:49;98655.47;;;19.08;83.77
54876;BME280;40764;48.472;8.166;2022-10-26T15:23:51;98662.00;;;18.91;84.74
54876;BME280;40764;48.472;8.166;2022-10-26T15:30:15;98667.28;;;18.63;87.05
54876;BME280;40764;48.472;8.166;2022-10-26T15:36:26;98669.03;;;18.38;88.17
54876;BME280;40764;48.472;8.166;2022-10-26T15:42:27;98669.66;;;18.14;89.46
54876;BME280;40764;48.472;8.166;2022-10-26T15:48:30;98681.63;;;17.98;90.76
54876;BME280;40764;48.472;8.166;2022-10-26T15:54:31;98689.38;;;17.75;92.23
54876;BME280;40764;48.472;8.166;2022-10-26T16:00:31;98691.66;;;17.64;93.90
54876;BME280;40764;48.472;8.166;2022-10-26T16:06:33;98704.34;;;17.65;94.76
54876;BME280;40764;48.472;8.166;2022-10-26T16:12:34;98707.72;;;17.62;95.26
54876;BME280;40764;48.472;8.166;2022-10-26T16:18:34;98704.72;;;17.38;96.86
54876;BME280;40764;48.472;8.166;2022-10-26T16:24:34;98724.72;;;17.17;98.84
54876;BME280;40764;48.472;8.166;2022-10-26T16:30:35;98728.63;;;16.90;100.00
54876;BME280;40764;48.472;8.166;2022-10-26T16:36:35;98733.16;;;16.78;100.00
54876;BME280;40764;48.472;8.166;2022-10-26T16:42:37;98733.78;;;16.66;100.00
54876;BME280;40764;48.472;8.166;2022-10-26T16:48:44;98742.78;;;16.40;100.00
54876;BME280;40764;48.472;8.166;2022-10-26T16:54:45;98750.88;;;16.37;100.00
54876;BME280;40764;48.472;8.166;2022-10-26T17:00:53;98759.47;;;16.35;100.00
54876;BME280;40764;48.472;8.166;2022-10-26T17:06:53;98757.84;;;16.34;100.00
54876;BME280;40764;48.472;8.166;2022-10-26T17:12:54;98773.56;;;16.25;100.00
54876;BME280;40764;48.472;8.166;2022-10-26T17:18:54;98778.34;;;16.02;100.00
54876;BME280;40764;48.472;8.166;2022-10-26T17:24:55;98786.31;;;15.82;100.00
54876;BME280;40764;48.472;8.166;2022-10-26T17:37:05;98809.13;;;15.73;100.00
54876;BME280;40764;48.472;8.166;2022-10-26T17:43:06;98815.22;;;15.62;100.00
54876;BME280;40764;48.472;8.166;2022-10-26T17:49:06;98824.25;;;15.40;100.00
54876;BME280;40764;48.472;8.166;2022-10-26T17:55:07;98831.75;;;15.26;100.00
54876;BME280;40764;48.472;8.166;2022-10-26T18:01:09;98839.19;;;15.25;100.00
54876;BME280;40764;48.472;8.166;2022-10-26T18:07:11;98844.88;;;15.06;100.00
54876;BME280;40764;48.472;8.166;2022-10-26T18:13:11;98862.72;;;14.95;100.00
54876;BME280;40764;48.472;8.166;2022-10-26T18:19:12;98869.66;;;14.93;100.00
54876;BME280;40764;48.472;8.166;2022-10-26T18:25:12;98865.69;;;14.71;100.00
54876;BME280;40764;48.472;8.166;2022-10-26T18:31:15;98870.47;;;14.66;100.00
54876;BME280;40764;48.472;8.166;2022-10-26T18:37:16;98878.41;;;14.67;100.00
54876;BME280;40764;48.472;8.166;2022-10-26T18:43:16;98897.38;;;14.55;100.00
54876;BME280;40764;48.472;8.166;2022-10-26T18:49:17;98896.16;;;14.47;100.00
54876;BME280;40764;48.472;8.166;2022-10-26T18:55:20;98903.44;;;14.38;100.00
54876;BME280;40764;48.472;8.166;2022-10-26T19:01:23;98897.06;;;14.10;100.00
54876;BME280;40764;48.472;8.166;2022-10-26T19:07:24;98898.16;;;13.95;100.00
54876;BME280;40764;48.472;8.166;2022-10-26T19:13:24;98902.53;;;13.97;100.00
54876;BME280;40764;48.472;8.166;2022-10-26T19:19:24;98904.97;;;13.98;100.00
54876;BME280;40764;48.472;8.166;2022-10-26T19:25:25;98918.94;;;13.83;100.00
54876;BME280;40764;48.472;8.166;2022-10-26T19:31:26;98917.41;;;13.77;100.00
54876;BME280;40764;48.472;8.166;2022-10-26T19:37:27;98922.97;;;13.72;100.00
54876;BME280;40764;48.472;8.166;2022-10-26T19:43:28;98928.69;;;13.56;100.00
54876;BME280;40764;48.472;8.166;2022-10-26T19:49:28;98929.28;;;13.35;100.00
54876;BME280;40764;48.472;8.166;2022-10-26T19:55:29;98930.44;;;13.28;100.00
54876;BME280;40764;48.472;8.166;2022-10-26T20:01:29;98936.41;;;13.36;100.00
54876;BME280;40764;48.472;8.166;2022-10-26T20:07:30;98943.03;;;13.35;100.00
54876;BME280;40764;48.472;8.166;2022-10-26T20:13:30;98946.09;;;13.28;100.00
54876;BME280;40764;48.472;8.166;2022-10-26T20:19:31;98946.19;;;13.23;100.00
54876;BME280;40764;48.472;8.166;2022-10-26T20:25:43;98956.59;;;13.02;100.00
54876;BME280;40764;48.472;8.166;2022-10-26T20:31:44;98958.75;;;12.81;100.00
54876;BME280;40764;48.472;8.166;2022-10-26T20:37:44;98959.50;;;12.87;100.00
54876;BME280;40764;48.472;8.166;2022-10-26T20:43:45;98959.28;;;12.83;100.00
54876;BME280;40764;48.472;8.166;2022-10-26T20:49:46;98965.44;;;12.70;100.00
54876;BME280;40764;48.472;8.166;2022-10-26T20:55:55;98960.22;;;12.74;100.00
54876;BME280;40764;48.472;8.166;2022-10-26T21:01:57;98970.63;;;12.71;100.00
54876;BME280;40764;48.472;8.166;2022-10-26T21:07:57;98969.41;;;12.59;100.00
54876;BME280;40764;48.472;8.166;2022-10-26T21:13:58;98963.75;;;12.50;100.00
54876;BME280;40764;48.472;8.166;2022-10-26T21:19:59;98975.00;;;12.49;100.00
54876;BME280;40764;48.472;8.166;2022-10-26T21:26:00;98970.81;;;12.56;100.00
54876;BME280;40764;48.472;8.166;2022-10-26T21:32:00;98971.31;;;12.58;100.00
54876;BME280;40764;48.472;8.166;2022-10-26T21:38:00;98972.63;;;12.37;100.00
54876;BME280;40764;48.472;8.166;2022-10-26T21:44:01;98981.47;;;12.29;100.00
54876;BME280;40764;48.472;8.166;2022-10-26T21:50:02;98968.81;;;12.33;100.00
54876;BME280;40764;48.472;8.166;2022-10-26T21:56:05;98968.47;;;12.39;100.00
54876;BME280;40764;48.472;8.166;2022-10-26T22:02:07;98966.53;;;12.16;100.00
54876;BME280;40764;48.472;8.166;2022-10-26T22:08:07;98970.13;;;12.06;100.00
54876;BME280;40764;48.472;8.166;2022-10-26T22:14:07;98974.28;;;12.04;100.00
54876;BME280;40764;48.472;8.166;2022-10-26T22:20:09;98977.31;;;12.02;100.00
54876;BME280;40764;48.472;8.166;2022-10-26T22:26:13;98968.88;;;11.94;100.00
54876;BME280;40764;48.472;8.166;2022-10-26T22:32:14;98969.69;;;11.94;100.00
54876;BME280;40764;48.472;8.166;2022-10-26T22:38:14;98977.34;;;11.97;100.00
54876;BME280;40764;48.472;8.166;2022-10-26T22:44:14;98966.75;;;11.86;100.00
54876;BME280;40764;48.472;8.166;2022-10-26T22:50:15;98964.78;;;11.91;100.00
54876;BME280;40764;48.472;8.166;2022-10-26T22:56:15;98963.94;;;11.96;100.00
54876;BME280;40764;48.472;8.166;2022-10-26T23:02:16;98967.38;;;11.67;100.00
54876;BME280;40764;48.472;8.166;2022-10-26T23:08:16;98961.94;;;11.62;100.00
54876;BME280;40764;48.472;8.166;2022-10-26T23:14:16;98958.94;;;11.64;100.00
54876;BME280;40764;48.472;8.166;2022-10-26T23:20:17;98950.22;;;11.57;100.00
54876;BME280;40764;48.472;8.166;2022-10-26T23:26:18;98953.50;;;11.54;100.00
54876;BME280;40764;48.472;8.166;2022-10-26T23:32:20;98954.06;;;11.51;100.00
54876;BME280;40764;48.472;8.166;2022-10-26T23:38:20;98959.25;;;11.52;100.00
54876;BME280;40764;48.472;8.166;2022-10-26T23:44:21;98967.78;;;11.45;100.00
54876;BME280;40764;48.472;8.166;2022-10-26T23:50:21;98962.84;;;11.47;100.00
54876;BME280;40764;48.472;8.166;2022-10-26T23:56:21;98960.72;;;11.39;100.00
